< < Back
Terminal Aerodrome Forecast


Current Version              Previous Versions:   1  2  3  4  5  6  7  8  9  

Terminal Aerodrome Forecast

565
FTUS44 KBMX 030042 AAA
TAFANB
TAF AMD
KANB 030042Z 0301/0324 24006KT 5SM SHRA VCTS BKN025CB OVC100
     FM030200 24003KT P6SM VCSH SCT025 OVC100
     FM030600 28003KT 5SM BR SCT007 BKN010
     FM030900 28003KT 4SM BR BKN007
     FM031700 29008KT P6SM SCT015 BKN050=

Latest METAR

238
SAUS70 KWBC 030100 RRD
MTRANB
METAR KANB 030053Z AUTO 00000KT 10SM -RA FEW090 OVC110 20/18 A2995 RMK
AO2 LTG DSNT E TSE20 SLP136 P0035 T02000178


USA.gov is the U.S. government's official web portal to all federal, state and local government web resources and services.